createdAt,value
2022-09-15T00:02:21.882Z,32.00
2022-09-15T00:04:48.379Z,31.30
2022-09-15T00:07:16.136Z,28.73
2022-09-15T00:09:42.868Z,28.25
2022-09-15T00:12:09.403Z,34.28
2022-09-15T00:14:35.883Z,30.58
2022-09-15T00:17:02.416Z,35.20
2022-09-15T00:19:28.935Z,36.25
2022-09-15T00:21:55.395Z,38.78
2022-09-15T00:24:21.915Z,37.97
2022-09-15T00:26:48.399Z,30.08
2022-09-15T00:29:14.875Z,31.50
2022-09-15T00:31:41.406Z,29.63
2022-09-15T00:34:07.904Z,24.80
2022-09-15T00:36:34.340Z,26.90
2022-09-15T00:39:00.972Z,27.23
2022-09-15T00:41:27.790Z,29.55
2022-09-15T00:43:59.715Z,28.05
2022-09-15T00:46:30.467Z,26.80
2022-09-15T00:49:07.348Z,25.85
2022-09-15T00:51:36.599Z,28.08
2022-09-15T00:54:07.025Z,26.08
2022-09-15T00:56:36.299Z,26.63
2022-09-15T00:59:06.765Z,27.65
2022-09-15T01:04:17.616Z,28.25
2022-09-15T01:06:52.279Z,27.95
2022-09-15T01:09:28.729Z,25.65
2022-09-15T01:11:55.240Z,31.40
2022-09-15T01:14:21.774Z,30.52
2022-09-15T01:20:30.985Z,29.17
2022-09-15T01:23:25.228Z,25.75
2022-09-15T01:26:16.552Z,25.10
2022-09-15T01:28:56.893Z,26.02
2022-09-15T01:32:00.126Z,28.55
2022-09-15T01:34:33.437Z,32.20
2022-09-15T01:37:06.782Z,29.73
2022-09-15T01:39:40.002Z,31.60
2022-09-15T01:42:10.537Z,32.80
2022-09-15T01:44:45.194Z,35.15
2022-09-15T01:47:14.985Z,31.83
2022-09-15T01:49:52.235Z,32.55
2022-09-15T01:52:21.187Z,33.28
2022-09-15T01:54:52.550Z,34.42
2022-09-15T01:57:22.118Z,37.97
2022-09-15T01:59:54.246Z,35.80
2022-09-15T02:02:24.519Z,40.22
2022-09-15T02:04:55.449Z,39.40
2022-09-15T02:07:31.910Z,44.58
2022-09-15T02:10:24.716Z,43.97
2022-09-15T02:12:58.504Z,41.95
2022-09-15T02:15:30.450Z,41.40
2022-09-15T02:17:58.039Z,37.85
2022-09-15T02:20:34.324Z,45.63
2022-09-15T02:23:08.197Z,41.72
2022-09-15T02:25:41.871Z,38.65
2022-09-15T02:28:13.018Z,45.17
2022-09-15T02:30:42.876Z,44.75
2022-09-15T02:33:14.718Z,48.78
2022-09-15T02:35:42.159Z,50.92
2022-09-15T02:38:10.777Z,46.08
2022-09-15T02:40:42.204Z,44.53
2022-09-15T02:43:17.706Z,42.25
2022-09-15T02:45:44.687Z,39.42
2022-09-15T02:48:11.748Z,42.92
2022-09-15T02:50:38.975Z,38.90
2022-09-15T02:53:06.068Z,39.47
2022-09-15T02:55:32.886Z,34.03
2022-09-15T02:58:00.273Z,34.50
2022-09-15T03:00:28.436Z,34.08
2022-09-15T03:02:55.604Z,34.33
2022-09-15T03:05:25.101Z,30.27
2022-09-15T03:07:52.358Z,25.77
2022-09-15T03:10:19.594Z,28.92
2022-09-15T03:12:49.972Z,24.10
2022-09-15T03:15:19.318Z,27.67
2022-09-15T03:17:47.621Z,22.67
2022-09-15T03:20:20.171Z,23.52
2022-09-15T03:22:47.744Z,24.25
2022-09-15T03:25:14.385Z,22.35
2022-09-15T03:27:40.973Z,15.95
2022-09-15T03:30:08.600Z,15.07
2022-09-15T03:32:35.565Z,18.02
2022-09-15T03:35:02.358Z,17.15
2022-09-15T03:37:28.833Z,18.95
2022-09-15T03:39:56.056Z,15.90
2022-09-15T03:42:22.678Z,12.60
2022-09-15T03:44:49.224Z,15.07
2022-09-15T03:47:15.798Z,17.88
2022-09-15T03:49:42.381Z,14.85
2022-09-15T03:52:08.904Z,17.83
2022-09-15T03:54:35.562Z,17.42
2022-09-15T03:57:03.400Z,13.48
2022-09-15T03:59:29.906Z,14.55
2022-09-15T04:01:56.443Z,12.40
2022-09-15T04:04:23.073Z,12.70
2022-09-15T04:06:49.569Z,15.05
2022-09-15T04:09:16.208Z,13.27
2022-09-15T04:11:42.874Z,18.58
2022-09-15T04:14:09.493Z,19.85
2022-09-15T04:16:36.159Z,18.98
2022-09-15T04:19:02.790Z,13.65
2022-09-15T04:21:31.695Z,18.92
2022-09-15T04:23:58.320Z,15.85
2022-09-15T04:26:29.966Z,14.48
2022-09-15T04:28:58.682Z,16.90
2022-09-15T04:31:27.110Z,14.88
2022-09-15T04:33:55.340Z,12.00
2022-09-15T04:36:25.014Z,11.82
2022-09-15T04:38:53.494Z,21.00
2022-09-15T04:41:20.931Z,18.98
2022-09-15T04:43:47.884Z,15.23
2022-09-15T04:46:15.232Z,19.38
2022-09-15T04:48:41.864Z,18.80
2022-09-15T04:51:11.890Z,16.85
2022-09-15T04:53:38.802Z,21.25
2022-09-15T04:56:11.624Z,19.25
2022-09-15T04:58:43.501Z,18.65
2022-09-15T05:01:20.135Z,20.67
2022-09-15T05:03:47.473Z,17.08
2022-09-15T05:06:16.471Z,21.48
2022-09-15T05:08:43.269Z,20.65
2022-09-15T05:11:12.148Z,19.75
2022-09-15T05:13:40.121Z,17.85
2022-09-15T05:16:15.242Z,28.02
2022-09-15T05:18:43.176Z,20.25
2022-09-15T05:21:11.185Z,26.05
2022-09-15T05:23:38.352Z,18.58
2022-09-15T05:26:28.233Z,18.48
2022-09-15T05:28:56.538Z,18.90
2022-09-15T05:31:29.017Z,20.50
2022-09-15T05:33:55.696Z,16.17
2022-09-15T05:36:25.310Z,20.80
2022-09-15T05:38:58.734Z,17.75
2022-09-15T05:41:26.689Z,17.63
2022-09-15T05:43:54.508Z,20.30
2022-09-15T05:46:21.076Z,16.67
2022-09-15T05:48:47.694Z,15.63
2022-09-15T05:51:14.641Z,14.25
2022-09-15T05:53:41.760Z,13.88
2022-09-15T05:56:12.117Z,17.73
2022-09-15T05:58:40.718Z,17.15
2022-09-15T06:01:11.083Z,14.95
2022-09-15T06:03:37.558Z,17.45
2022-09-15T06:06:05.651Z,14.18
2022-09-15T06:08:36.848Z,16.38
2022-09-15T06:11:20.503Z,16.45
2022-09-15T06:13:47.583Z,12.45
2022-09-15T06:16:18.315Z,13.40
2022-09-15T06:18:45.123Z,11.77
2022-09-15T06:21:14.240Z,13.75
2022-09-15T06:23:41.721Z,13.48
2022-09-15T06:26:13.160Z,8.60
2022-09-15T06:28:42.298Z,9.43
2022-09-15T06:31:13.514Z,11.10
2022-09-15T06:33:45.141Z,11.45
2022-09-15T06:36:16.034Z,10.60
2022-09-15T06:38:43.028Z,10.90
2022-09-15T06:41:10.541Z,9.18
2022-09-15T06:43:37.657Z,12.07
2022-09-15T06:46:09.149Z,11.95
2022-09-15T06:48:37.149Z,9.40
2022-09-15T06:51:05.357Z,8.70
2022-09-15T06:53:33.455Z,9.57
2022-09-15T06:56:08.300Z,7.60
2022-09-15T06:58:36.261Z,10.53
2022-09-15T07:01:27.262Z,13.60
2022-09-15T07:03:56.737Z,8.93
2022-09-15T07:06:23.451Z,9.52
2022-09-15T07:08:50.413Z,7.68
2022-09-15T07:11:18.447Z,7.75
2022-09-15T07:13:45.180Z,7.95
2022-09-15T07:16:13.186Z,9.05
2022-09-15T07:18:43.202Z,10.93
2022-09-15T07:21:16.348Z,8.90
2022-09-15T07:23:44.012Z,7.43
2022-09-15T07:26:14.743Z,6.50
2022-09-15T07:28:42.860Z,9.00
2022-09-15T07:31:11.562Z,6.82
2022-09-15T07:33:38.138Z,6.65
2022-09-15T07:36:06.781Z,7.20
2022-09-15T07:38:34.308Z,7.95
2022-09-15T07:41:05.942Z,6.57
2022-09-15T07:43:32.917Z,8.30
2022-09-15T07:46:00.767Z,10.40
2022-09-15T07:48:28.086Z,7.05
2022-09-15T07:50:54.748Z,5.72
2022-09-15T07:53:22.179Z,6.45
2022-09-15T07:55:53.505Z,6.68
2022-09-15T07:58:20.375Z,5.60
2022-09-15T08:00:47.665Z,6.63
2022-09-15T08:03:15.402Z,7.95
2022-09-15T08:05:45.605Z,8.98
2022-09-15T08:08:12.425Z,9.55
2022-09-15T08:10:42.858Z,8.82
2022-09-15T08:13:09.392Z,8.05
2022-09-15T08:15:38.908Z,7.13
2022-09-15T08:18:06.288Z,5.97
2022-09-15T08:20:33.245Z,6.57
2022-09-15T08:22:59.834Z,11.52
2022-09-15T08:25:26.656Z,7.30
2022-09-15T08:27:56.358Z,10.38
2022-09-15T08:30:23.909Z,6.90
2022-09-15T08:32:50.468Z,5.82
2022-09-15T08:35:17.638Z,6.90
2022-09-15T08:37:44.325Z,7.22
2022-09-15T08:40:23.829Z,8.13
2022-09-15T08:42:53.259Z,7.85
2022-09-15T08:45:36.587Z,6.82
2022-09-15T08:48:05.979Z,6.63
2022-09-15T08:50:38.974Z,7.25
2022-09-15T08:53:12.888Z,9.38
2022-09-15T08:55:54.666Z,7.32
2022-09-15T08:58:24.660Z,8.05
2022-09-15T09:01:04.461Z,7.50
2022-09-15T09:03:58.606Z,7.53
2022-09-15T09:06:53.313Z,8.75
2022-09-15T09:09:22.618Z,6.97
2022-09-15T09:11:59.029Z,9.00
2022-09-15T09:14:44.307Z,6.82
2022-09-15T09:17:22.204Z,8.25
2022-09-15T09:20:08.853Z,8.23
2022-09-15T09:22:40.568Z,7.13
2022-09-15T09:25:26.735Z,9.18
2022-09-15T09:27:54.270Z,6.10
2022-09-15T09:30:23.131Z,9.45
2022-09-15T09:32:55.798Z,8.68
2022-09-15T09:35:45.168Z,10.82
2022-09-15T09:38:17.431Z,8.20
2022-09-15T09:40:45.157Z,6.80
2022-09-15T09:43:11.693Z,7.70
2022-09-15T09:45:38.290Z,9.32
2022-09-15T09:48:20.074Z,6.70
2022-09-15T09:50:47.401Z,7.18
2022-09-15T09:53:36.758Z,8.93
2022-09-15T09:56:12.593Z,8.95
2022-09-15T09:58:39.099Z,6.57
2022-09-15T10:01:14.307Z,7.55
2022-09-15T10:03:44.293Z,7.03
2022-09-15T10:06:17.256Z,7.13
2022-09-15T10:08:58.865Z,5.45
2022-09-15T10:11:47.158Z,8.82
2022-09-15T10:14:21.656Z,7.03
2022-09-15T10:17:00.524Z,5.72
2022-09-15T10:19:33.062Z,7.18
2022-09-15T10:22:01.857Z,9.65
2022-09-15T10:24:35.190Z,8.27
2022-09-15T10:27:15.969Z,5.50
2022-09-15T10:29:42.489Z,6.57
2022-09-15T10:32:19.006Z,5.65
2022-09-15T10:34:51.275Z,7.38
2022-09-15T10:37:28.165Z,8.98
2022-09-15T10:39:57.385Z,7.72
2022-09-15T10:42:38.316Z,6.30
2022-09-15T10:45:11.499Z,6.88
2022-09-15T10:48:12.240Z,7.82
2022-09-15T10:50:57.279Z,8.18
2022-09-15T10:53:36.790Z,8.93
2022-09-15T10:56:27.329Z,9.35
2022-09-15T10:59:17.639Z,7.57
2022-09-15T11:01:52.988Z,8.98
2022-09-15T11:04:30.790Z,9.23
2022-09-15T11:07:13.451Z,6.80
2022-09-15T11:09:51.281Z,8.77
2022-09-15T11:12:30.639Z,9.02
2022-09-15T11:15:07.236Z,8.55
2022-09-15T11:18:01.913Z,11.70
2022-09-15T11:21:01.300Z,8.90
2022-09-15T11:23:40.133Z,5.93
2022-09-15T11:26:14.505Z,5.30
2022-09-15T11:28:56.342Z,7.30
2022-09-15T11:31:42.470Z,8.18
2022-09-15T11:34:26.964Z,7.50
2022-09-15T11:37:05.819Z,7.55
2022-09-15T11:40:00.359Z,8.80
2022-09-15T11:42:37.480Z,6.15
2022-09-15T11:45:06.774Z,11.98
2022-09-15T11:47:40.149Z,7.32
2022-09-15T11:50:18.911Z,7.50
2022-09-15T11:53:03.816Z,9.20
2022-09-15T11:55:33.259Z,6.35
2022-09-15T11:58:21.643Z,5.75
2022-09-15T12:01:16.433Z,8.50
2022-09-15T12:04:13.637Z,7.03
2022-09-15T12:06:46.091Z,6.43
2022-09-15T12:09:17.921Z,7.95
2022-09-15T12:11:47.753Z,6.57
2022-09-15T12:14:20.911Z,6.68
2022-09-15T12:16:47.860Z,7.03
2022-09-15T12:19:21.534Z,8.15
2022-09-15T12:21:56.838Z,6.38
2022-09-15T12:24:40.559Z,7.93
2022-09-15T12:27:15.898Z,7.50
2022-09-15T12:29:50.988Z,6.70
2022-09-15T12:32:24.132Z,10.80
2022-09-15T12:35:17.640Z,7.82
2022-09-15T12:37:59.006Z,7.82
2022-09-15T12:40:39.940Z,7.60
2022-09-15T12:43:12.870Z,6.40
2022-09-15T12:45:42.897Z,6.78
2022-09-15T12:48:18.955Z,6.60
2022-09-15T12:50:54.579Z,8.07
2022-09-15T12:53:26.151Z,7.03
2022-09-15T12:55:56.951Z,8.68
2022-09-15T12:58:39.197Z,8.85
2022-09-15T13:01:26.741Z,7.13
2022-09-15T13:03:57.817Z,7.88
2022-09-15T13:06:34.297Z,8.13
2022-09-15T13:09:05.407Z,7.38
2022-09-15T13:11:37.110Z,7.82
2022-09-15T13:14:04.045Z,7.40
2022-09-15T13:17:07.331Z,9.57
2022-09-15T13:19:36.611Z,7.35
2022-09-15T13:22:11.980Z,7.85
2022-09-15T13:24:44.528Z,8.48
2022-09-15T13:27:13.408Z,8.40
2022-09-15T13:29:50.953Z,8.73
2022-09-15T13:32:39.961Z,12.93
2022-09-15T13:35:17.101Z,6.78
2022-09-15T13:38:14.024Z,6.80
2022-09-15T13:41:15.293Z,8.75
2022-09-15T13:44:07.659Z,8.52
2022-09-15T13:46:41.773Z,9.90
2022-09-15T13:49:48.373Z,7.05
2022-09-15T13:52:47.811Z,7.18
2022-09-15T13:55:14.315Z,7.82
2022-09-15T14:00:42.638Z,7.43
2022-09-15T14:03:15.411Z,8.98
2022-09-15T14:05:42.576Z,7.40
2022-09-15T14:08:20.257Z,7.30
2022-09-15T14:11:08.351Z,7.68
2022-09-15T14:13:37.909Z,7.18
2022-09-15T14:16:25.607Z,8.68
2022-09-15T14:18:56.393Z,7.10
2022-09-15T14:21:28.919Z,9.40
2022-09-15T14:24:03.954Z,6.55
2022-09-15T14:26:35.410Z,10.88
2022-09-15T14:29:04.723Z,8.68
2022-09-15T14:31:40.329Z,7.03
2022-09-15T14:34:17.067Z,8.77
2022-09-15T14:36:43.646Z,8.05
2022-09-15T14:39:21.896Z,9.35
2022-09-15T14:41:50.158Z,7.50
2022-09-15T14:47:27.917Z,9.45
2022-09-15T14:50:08.093Z,8.02
2022-09-15T14:52:40.233Z,7.18
2022-09-15T14:55:14.073Z,7.68
2022-09-15T14:57:45.843Z,7.72
2022-09-15T15:00:23.364Z,7.68
2022-09-15T15:03:34.074Z,9.63
2022-09-15T15:06:28.419Z,7.18
2022-09-15T15:09:17.319Z,7.07
2022-09-15T15:11:44.476Z,9.18
2022-09-15T15:14:13.419Z,6.60
2022-09-15T15:16:56.776Z,7.38
2022-09-15T15:19:39.829Z,7.88
2022-09-15T15:22:20.625Z,6.05
2022-09-15T15:24:52.525Z,5.90
2022-09-15T15:27:25.888Z,8.43
2022-09-15T15:29:53.090Z,6.60
2022-09-15T15:32:25.122Z,6.13
2022-09-15T15:34:59.774Z,10.57
2022-09-15T15:37:29.636Z,6.10
2022-09-15T15:39:58.550Z,8.60
2022-09-15T15:42:28.782Z,7.63
2022-09-15T15:45:26.256Z,5.75
2022-09-15T15:47:53.307Z,6.05
2022-09-15T15:50:22.908Z,7.70
2022-09-15T15:52:49.997Z,8.32
2022-09-15T15:55:19.527Z,6.87
2022-09-15T15:57:55.896Z,7.90
2022-09-15T16:00:25.228Z,6.25
2022-09-15T16:02:52.497Z,7.97
2022-09-15T16:05:26.757Z,7.53
2022-09-15T16:07:56.136Z,8.50
2022-09-15T16:10:28.056Z,8.93
2022-09-15T16:12:54.514Z,6.68
2022-09-15T16:15:21.806Z,4.90
2022-09-15T16:17:49.616Z,6.65
2022-09-15T16:20:16.890Z,9.60
2022-09-15T16:22:43.725Z,5.78
2022-09-15T16:25:16.001Z,6.15
2022-09-15T16:27:44.182Z,7.00
2022-09-15T16:30:13.596Z,8.38
2022-09-15T16:32:40.736Z,6.15
2022-09-15T16:35:22.457Z,8.93
2022-09-15T16:37:49.030Z,6.55
2022-09-15T16:40:17.679Z,7.95
2022-09-15T16:42:44.415Z,8.60
2022-09-15T16:45:21.377Z,8.43
2022-09-15T16:47:47.902Z,8.63
2022-09-15T16:50:14.420Z,7.72
2022-09-15T16:52:40.924Z,8.93
2022-09-15T16:55:20.835Z,6.05
2022-09-15T16:57:47.733Z,6.15
2022-09-15T17:00:14.778Z,7.00
2022-09-15T17:02:41.379Z,5.18
2022-09-15T17:05:37.794Z,5.90
2022-09-15T17:08:05.432Z,6.20
2022-09-15T17:10:33.613Z,6.28
2022-09-15T17:13:00.724Z,6.97
2022-09-15T17:15:40.824Z,9.65
2022-09-15T17:18:09.978Z,6.75
2022-09-15T17:20:39.335Z,8.10
2022-09-15T17:23:31.165Z,8.25
2022-09-15T17:25:59.644Z,6.88
2022-09-15T17:28:29.004Z,8.90
2022-09-15T17:31:00.923Z,14.02
2022-09-15T17:33:28.861Z,9.13
2022-09-15T17:35:55.976Z,6.93
2022-09-15T17:38:22.943Z,7.40
2022-09-15T17:40:50.501Z,6.18
2022-09-15T17:43:20.215Z,7.22
2022-09-15T17:45:47.673Z,6.53
2022-09-15T17:48:14.324Z,8.40
2022-09-15T17:50:42.069Z,6.47
2022-09-15T17:53:22.609Z,8.05
2022-09-15T17:55:50.701Z,5.65
2022-09-15T17:58:17.873Z,12.85
2022-09-15T18:00:45.423Z,6.50
2022-09-15T18:03:17.865Z,8.18
2022-09-15T18:05:44.394Z,7.15
2022-09-15T18:08:11.007Z,6.72
2022-09-15T18:10:37.602Z,8.52
2022-09-15T18:13:05.754Z,6.05
2022-09-15T18:15:34.510Z,6.93
2022-09-15T18:18:04.097Z,6.15
2022-09-15T18:20:32.843Z,8.70
2022-09-15T18:23:00.268Z,8.25
2022-09-15T18:25:30.962Z,9.90
2022-09-15T18:27:58.920Z,13.75
2022-09-15T18:30:28.168Z,7.28
2022-09-15T18:32:55.014Z,5.60
2022-09-15T18:35:22.235Z,8.18
2022-09-15T18:37:53.916Z,5.80
2022-09-15T18:40:20.631Z,8.38
2022-09-15T18:42:47.338Z,9.55
2022-09-15T18:45:17.176Z,6.85
2022-09-15T18:47:47.021Z,7.63
2022-09-15T18:50:14.223Z,6.75
2022-09-15T18:52:41.720Z,6.60
2022-09-15T18:55:11.432Z,8.13
2022-09-15T18:57:40.211Z,6.97
2022-09-15T19:00:13.370Z,5.65
2022-09-15T19:02:40.244Z,6.30
2022-09-15T19:05:08.311Z,7.40
2022-09-15T19:07:34.825Z,10.23
2022-09-15T19:10:01.714Z,5.93
2022-09-15T19:12:28.310Z,5.10
2022-09-15T19:14:55.255Z,8.35
2022-09-15T19:17:22.319Z,11.10
2022-09-15T19:19:48.860Z,7.40
2022-09-15T19:22:15.615Z,6.45
2022-09-15T19:24:42.139Z,5.68
2022-09-15T19:27:09.210Z,8.77
2022-09-15T19:29:37.353Z,8.70
2022-09-15T19:32:06.251Z,7.18
2022-09-15T19:34:32.803Z,8.48
2022-09-15T19:36:59.464Z,7.03
2022-09-15T19:39:26.151Z,8.00
2022-09-15T19:41:52.875Z,7.05
2022-09-15T19:44:20.898Z,6.53
2022-09-15T19:46:47.379Z,6.30
2022-09-15T19:49:14.032Z,8.23
2022-09-15T19:51:40.853Z,6.65
2022-09-15T19:54:07.713Z,9.35
2022-09-15T19:56:35.545Z,7.32
2022-09-15T19:59:05.089Z,8.50
2022-09-15T20:01:33.063Z,8.70
2022-09-15T20:07:01.168Z,6.65
2022-09-15T20:09:27.715Z,6.55
2022-09-15T20:11:54.235Z,8.27
2022-09-15T20:14:20.787Z,8.70
2022-09-15T20:16:47.400Z,12.77
2022-09-15T20:19:14.015Z,11.82
2022-09-15T20:21:56.608Z,13.55
2022-09-15T20:24:24.238Z,10.30
2022-09-15T20:26:51.282Z,14.55
2022-09-15T20:29:21.478Z,10.40
2022-09-15T20:31:48.022Z,12.00
2022-09-15T20:34:14.713Z,10.52
2022-09-15T20:36:41.300Z,14.73
2022-09-15T20:39:13.305Z,12.18
2022-09-15T20:41:41.808Z,14.23
2022-09-15T20:44:12.413Z,8.25
2022-09-15T20:46:39.139Z,7.15
2022-09-15T20:49:05.930Z,7.43
2022-09-15T20:51:33.784Z,9.40
2022-09-15T20:54:06.806Z,10.15
2022-09-15T20:56:35.485Z,8.32
2022-09-15T20:59:04.286Z,7.07
2022-09-15T21:01:38.659Z,7.93
2022-09-15T21:04:06.662Z,8.15
2022-09-15T21:06:33.157Z,6.60
2022-09-15T21:09:00.396Z,7.85
2022-09-15T21:11:28.698Z,5.95
2022-09-15T21:13:55.868Z,7.00
2022-09-15T21:16:25.359Z,8.75
2022-09-15T21:18:52.096Z,7.93
2022-09-15T21:21:21.533Z,6.95
2022-09-15T21:23:54.218Z,7.82
2022-09-15T21:26:24.383Z,10.10
2022-09-15T21:28:51.489Z,7.13
2022-09-15T21:31:20.344Z,9.55
2022-09-15T21:33:48.471Z,8.98
2022-09-15T21:36:22.141Z,10.80
2022-09-15T21:38:50.946Z,8.68
2022-09-15T21:41:21.523Z,8.30
2022-09-15T21:43:49.462Z,10.18
2022-09-15T21:46:18.451Z,12.40
2022-09-15T21:48:47.536Z,9.95
2022-09-15T21:51:24.245Z,10.15
2022-09-15T21:53:53.090Z,8.63
2022-09-15T21:56:19.986Z,8.55
2022-09-15T21:58:46.647Z,11.05
2022-09-15T22:01:21.908Z,8.07
2022-09-15T22:04:01.896Z,7.57
2022-09-15T22:06:31.969Z,7.53
2022-09-15T22:09:00.640Z,7.28
2022-09-15T22:11:27.695Z,9.13
2022-09-15T22:13:54.260Z,8.55
2022-09-15T22:16:22.492Z,12.20
2022-09-15T22:18:49.594Z,9.93
2022-09-15T22:21:22.171Z,13.68
2022-09-15T22:23:50.230Z,10.23
2022-09-15T22:26:19.904Z,9.27
2022-09-15T22:28:46.881Z,11.80
2022-09-15T22:31:15.745Z,12.35
2022-09-15T22:33:42.697Z,10.43
2022-09-15T22:36:14.166Z,10.07
2022-09-15T22:38:41.081Z,8.60
2022-09-15T22:41:10.122Z,7.43
2022-09-15T22:43:36.964Z,7.50
2022-09-15T22:46:03.979Z,11.38
2022-09-15T22:48:30.543Z,7.53
2022-09-15T22:50:57.459Z,7.47
2022-09-15T22:53:24.255Z,7.03
2022-09-15T22:55:51.373Z,10.23
2022-09-15T22:58:18.025Z,6.20
2022-09-15T23:00:44.738Z,9.88
2022-09-15T23:03:11.959Z,7.68
2022-09-15T23:05:38.591Z,10.45
2022-09-15T23:08:05.340Z,7.32
2022-09-15T23:10:32.738Z,9.38
2022-09-15T23:12:59.834Z,5.78
2022-09-15T23:15:26.390Z,7.43
2022-09-15T23:17:52.848Z,9.00
2022-09-15T23:20:19.568Z,8.63
2022-09-15T23:22:46.030Z,5.50
2022-09-15T23:25:12.959Z,7.28
2022-09-15T23:27:39.621Z,6.13
2022-09-15T23:30:06.550Z,5.85
2022-09-15T23:32:33.079Z,6.00
2022-09-15T23:34:59.612Z,5.97
2022-09-15T23:37:26.251Z,4.90
2022-09-15T23:39:52.771Z,7.28
2022-09-15T23:42:19.298Z,6.57
2022-09-15T23:44:45.929Z,6.20
2022-09-15T23:47:12.475Z,7.82
2022-09-15T23:49:38.963Z,7.15
2022-09-15T23:52:05.468Z,9.15
2022-09-15T23:54:32.038Z,8.43
2022-09-15T23:56:58.513Z,10.43
2022-09-15T23:59:25.063Z,7.30
